Startpagina
METAR-TAF:

METAR-TAF

Vliegvelden :

Aeroporto Internacional de Foz do Iguaçu

Foz do Iguaçu, Paraná, Brazilië

breedte: 25-31S, lengte: 054-35W, hoogte: 180 m

Actueel weer

Dit bericht is 17 minuten geleden gemaakt, om 02:00 UTC
Wind 3 kt uit het oostzuidoosten
Temperatuur 21°C
Vochtigheid 56%
Druk 1013 hPa
Zicht 10 km of meer
geen wolken onder 1500 m en geen cumulonimbus

METAR: SBFI 190200Z 11003KT CAVOK 21/12 Q1013

Tijdstip: 23:17 (02:17 UTC)

Verwachting

Dit bericht is 4 uur en het 17 minuten geleden gemaakt, om 22:00 UTC
Verwachting geldig van 19 om 00 UTC tot 19 om 24 UTC
Wind 5 kt uit het noordnoordoosten
Zicht 10 km of meer
geen wolken onder 1500 m en geen cumulonimbus
Wijzigt naar
van 19 om 00 UTC tot 19 om 02 UTC
Wind 5 kt uit het oosten
Wijzigt naar
van 19 om 12 UTC tot 19 om 14 UTC
Wind 9 kt uit het noordnoordoosten

TAF: SBFI 182200Z 1900/1924 02005KT CAVOK TN20/1909Z TX31/1918Z BECMG 1900/1902 09005KT BECMG 1912/1914 02009KT RMK PER

Waarnemingen en weersverwachtingen van meer dan 4000 vliegvelden (METAR en TAF).

De beschikbare stations zijn de gele en rode punten op de kaart.

Ga met uw muis naar het station om de naam te zien.

Klik dan om waarnemingen en weersverwachtingen te zien.

kaart wijzigen: klik op de groene knoppen met een zwart kruis om in te zoomen, op de groene knop met een streepje om uit te zoomen of op de groene pijlen voor aangrenzende kaarten.


METAR-TAF: